< < Back
Terminal Aerodrome Forecast


Current Version              Previous Versions:   1  2  3  4  5  6  7  8  9  

Terminal Aerodrome Forecast

823
FTUS44 KBMX 031319 AAA
TAFMGM
TAF AMD
KMGM 031319Z 0313/0412 29005KT P6SM VCSH OVC015
     FM031700 30007KT P6SM VCSH BKN030
     FM032300 30008KT P6SM SCT060
     FM040900 VRB03KT P6SM SCT250=

Latest METAR

764
SAUS80 KWBC 040400
MTRMGM
METAR KMGM 040353Z 31005KT 10SM BKN120 18/14 A2989 RMK AO2 SLP120
T01780144


USA.gov is the U.S. government's official web portal to all federal, state and local government web resources and services.